createdAt,value
2023-03-04T00:01:09.800Z,21.27
2023-03-04T00:03:38.483Z,21.50
2023-03-04T00:06:07.741Z,27.77
2023-03-04T00:08:36.261Z,28.27
2023-03-04T00:11:05.142Z,43.20
2023-03-04T00:13:33.878Z,30.00
2023-03-04T00:16:03.752Z,30.67
2023-03-04T00:18:32.345Z,28.87
2023-03-04T00:21:00.815Z,27.43
2023-03-04T00:23:29.185Z,22.23
2023-03-04T00:25:57.632Z,25.97
2023-03-04T00:28:26.098Z,25.93
2023-03-04T00:30:54.712Z,25.80
2023-03-04T00:33:24.490Z,23.33
2023-03-04T00:35:53.357Z,26.47
2023-03-04T00:38:21.836Z,23.57
2023-03-04T00:40:50.322Z,27.67
2023-03-04T00:43:18.747Z,26.80
2023-03-04T00:45:47.182Z,24.23
2023-03-04T00:48:16.552Z,23.37
2023-03-04T00:50:46.356Z,27.53
2023-03-04T00:53:16.074Z,25.07
2023-03-04T00:55:45.112Z,24.00
2023-03-04T00:58:13.422Z,23.93
2023-03-04T01:00:41.937Z,23.00
2023-03-04T01:03:10.368Z,22.77
2023-03-04T01:05:38.890Z,23.73
2023-03-04T01:08:08.829Z,24.10
2023-03-04T01:10:37.237Z,24.73
2023-03-04T01:13:06.053Z,21.53
2023-03-04T01:15:35.485Z,21.90
2023-03-04T01:18:03.915Z,21.57
2023-03-04T01:20:32.336Z,21.00
2023-03-04T01:23:00.736Z,22.03
2023-03-04T01:25:30.604Z,20.97
2023-03-04T01:28:00.481Z,21.67
2023-03-04T01:30:28.948Z,17.77
2023-03-04T01:32:58.169Z,21.40
2023-03-04T01:35:26.769Z,21.03
2023-03-04T01:37:55.218Z,22.83
2023-03-04T01:40:23.693Z,20.00
2023-03-04T01:42:53.680Z,19.10
2023-03-04T01:45:22.570Z,21.17
2023-03-04T01:47:51.904Z,17.47
2023-03-04T01:50:24.026Z,19.37
2023-03-04T01:52:52.584Z,17.90
2023-03-04T01:55:23.806Z,18.83
2023-03-04T01:57:54.214Z,17.83
2023-03-04T02:00:32.047Z,18.83
2023-03-04T02:03:02.671Z,17.33
2023-03-04T02:05:31.792Z,18.73
2023-03-04T02:08:01.737Z,21.37
2023-03-04T02:10:30.281Z,18.83
2023-03-04T02:13:00.854Z,17.87
2023-03-04T02:15:29.692Z,18.43
2023-03-04T02:17:58.340Z,18.83
2023-03-04T02:20:41.644Z,18.23
2023-03-04T02:23:16.380Z,20.00
2023-03-04T02:25:49.083Z,21.97
2023-03-04T02:28:19.190Z,20.53
2023-03-04T02:30:48.065Z,21.70
2023-03-04T02:33:19.894Z,20.23
2023-03-04T02:35:48.521Z,20.77
2023-03-04T02:38:16.987Z,18.87
2023-03-04T02:40:49.945Z,17.17
2023-03-04T02:43:19.757Z,17.50
2023-03-04T02:45:50.663Z,18.73
2023-03-04T02:48:22.510Z,16.67
2023-03-04T02:50:53.144Z,21.97
2023-03-04T02:53:23.076Z,19.40
2023-03-04T02:55:51.958Z,17.57
2023-03-04T02:58:24.454Z,17.07
2023-03-04T03:00:52.877Z,19.30
2023-03-04T03:03:21.447Z,19.07
2023-03-04T03:05:50.379Z,19.60
2023-03-04T03:08:20.117Z,21.27
2023-03-04T03:10:48.877Z,19.27
2023-03-04T03:13:19.386Z,20.80
2023-03-04T03:15:50.210Z,18.90
2023-03-04T03:18:19.005Z,18.50
2023-03-04T03:20:47.650Z,17.97
2023-03-04T03:23:18.178Z,20.33
2023-03-04T03:25:46.598Z,17.57
2023-03-04T03:28:15.000Z,20.97
2023-03-04T03:30:43.463Z,23.53
2023-03-04T03:33:13.264Z,18.17
2023-03-04T03:35:41.908Z,21.50
2023-03-04T03:38:10.315Z,20.77
2023-03-04T03:40:38.809Z,21.53
2023-03-04T03:43:07.140Z,20.33
2023-03-04T03:45:35.587Z,21.80
2023-03-04T03:48:03.974Z,20.23
2023-03-04T03:50:33.770Z,23.90
2023-03-04T03:53:02.440Z,20.80
2023-03-04T03:55:30.826Z,20.60
2023-03-04T03:57:59.286Z,21.50
2023-03-04T04:00:27.773Z,19.37
2023-03-04T04:02:57.963Z,18.13
2023-03-04T04:05:26.450Z,19.83
2023-03-04T04:07:56.302Z,22.53
2023-03-04T04:10:24.765Z,21.40
2023-03-04T04:12:53.389Z,20.90
2023-03-04T04:15:22.058Z,24.07
2023-03-04T04:17:50.485Z,21.07
2023-03-04T04:20:19.067Z,21.07
2023-03-04T04:22:47.397Z,22.27
2023-03-04T04:25:17.385Z,20.47
2023-03-04T04:27:45.759Z,20.60
2023-03-04T04:30:14.771Z,20.27
2023-03-04T04:32:43.295Z,20.90
2023-03-04T04:35:11.793Z,22.67
2023-03-04T04:37:40.286Z,22.67
2023-03-04T04:40:10.148Z,21.80
2023-03-04T04:42:40.075Z,22.53
2023-03-04T04:45:09.936Z,25.37
2023-03-04T04:47:38.446Z,21.50
2023-03-04T04:50:07.953Z,21.87
2023-03-04T04:52:36.449Z,19.47
2023-03-04T04:55:05.151Z,20.67
2023-03-04T04:57:34.859Z,20.40
2023-03-04T05:00:05.612Z,19.30
2023-03-04T05:02:36.567Z,21.30
2023-03-04T05:05:05.142Z,21.27
2023-03-04T05:07:33.522Z,22.10
2023-03-04T05:10:01.949Z,19.00
2023-03-04T05:12:31.460Z,19.70
2023-03-04T05:15:00.012Z,20.80
2023-03-04T05:17:29.872Z,19.93
2023-03-04T05:19:58.356Z,19.57
2023-03-04T05:22:26.820Z,20.80
2023-03-04T05:24:55.507Z,21.30
2023-03-04T05:27:23.932Z,22.30
2023-03-04T05:29:52.384Z,19.43
2023-03-04T05:32:20.730Z,20.63
2023-03-04T05:34:50.712Z,18.57
2023-03-04T05:37:19.108Z,21.13
2023-03-04T05:39:47.580Z,22.77
2023-03-04T05:42:16.020Z,20.60
2023-03-04T05:44:44.553Z,21.13
2023-03-04T05:47:13.018Z,21.33
2023-03-04T05:49:41.964Z,20.33
2023-03-04T05:52:11.915Z,20.40
2023-03-04T05:54:40.375Z,18.13
2023-03-04T05:57:08.889Z,20.10
2023-03-04T05:59:37.330Z,21.13
2023-03-04T06:02:05.700Z,25.70
2023-03-04T06:04:34.260Z,21.60
2023-03-04T06:07:02.616Z,20.03
2023-03-04T06:09:33.446Z,20.90
2023-03-04T06:12:01.897Z,22.53
2023-03-04T06:14:30.286Z,20.57
2023-03-04T06:16:58.897Z,20.17
2023-03-04T06:19:27.241Z,20.47
2023-03-04T06:21:55.621Z,19.67
2023-03-04T06:24:23.997Z,20.73
2023-03-04T06:26:53.826Z,20.60
2023-03-04T06:29:22.483Z,19.63
2023-03-04T06:31:51.004Z,22.03
2023-03-04T06:34:19.761Z,21.90
2023-03-04T06:36:48.283Z,23.00
2023-03-04T06:39:16.739Z,21.77
2023-03-04T06:41:46.349Z,21.60
2023-03-04T06:44:16.198Z,22.30
2023-03-04T06:46:45.764Z,22.93
2023-03-04T06:49:14.267Z,21.67
2023-03-04T06:51:42.674Z,22.97
2023-03-04T06:54:11.525Z,21.83
2023-03-04T06:56:39.870Z,22.40
2023-03-04T06:59:08.415Z,20.97
2023-03-04T07:01:38.269Z,22.83
2023-03-04T07:04:07.041Z,22.77
2023-03-04T07:06:35.502Z,23.60
2023-03-04T07:09:03.954Z,23.73
2023-03-04T07:11:33.425Z,23.90
2023-03-04T07:14:01.864Z,23.33
2023-03-04T07:16:30.375Z,23.27
2023-03-04T07:19:00.367Z,22.27
2023-03-04T07:21:28.970Z,22.10
2023-03-04T07:23:58.174Z,22.77
2023-03-04T07:26:26.618Z,22.03
2023-03-04T07:28:57.346Z,23.50
2023-03-04T07:31:30.085Z,24.73
2023-03-04T07:34:01.648Z,20.97
2023-03-04T07:36:30.970Z,21.03
2023-03-04T07:38:59.342Z,25.13
2023-03-04T07:41:30.040Z,24.73
2023-03-04T07:43:58.959Z,24.63
2023-03-04T07:46:27.538Z,22.23
2023-03-04T07:48:58.101Z,21.13
2023-03-04T07:51:29.423Z,19.37
2023-03-04T07:54:00.320Z,25.80
2023-03-04T07:56:31.410Z,32.77
2023-03-04T07:59:00.274Z,33.87
2023-03-04T08:01:30.918Z,35.90
2023-03-04T08:03:59.953Z,31.13
2023-03-04T08:06:30.131Z,23.23
2023-03-04T08:09:00.472Z,22.13
2023-03-04T08:11:30.544Z,19.57
2023-03-04T08:13:59.142Z,20.60
2023-03-04T08:16:28.624Z,19.97
2023-03-04T08:18:58.861Z,22.20
2023-03-04T08:21:30.024Z,20.23
2023-03-04T08:24:01.894Z,18.63
2023-03-04T08:26:34.030Z,21.77
2023-03-04T08:29:04.380Z,21.93
2023-03-04T08:31:33.645Z,23.73
2023-03-04T08:34:03.622Z,24.40
2023-03-04T08:36:33.542Z,19.30
2023-03-04T08:39:01.993Z,22.80
2023-03-04T08:41:30.542Z,18.70
2023-03-04T08:43:59.007Z,18.50
2023-03-04T08:46:27.547Z,17.87
2023-03-04T08:48:56.059Z,20.63
2023-03-04T08:51:25.141Z,17.83
2023-03-04T08:53:55.049Z,20.07
2023-03-04T08:56:23.859Z,20.90
2023-03-04T08:58:52.168Z,18.73
2023-03-04T09:01:20.673Z,18.30
2023-03-04T09:03:50.146Z,20.97
2023-03-04T09:06:19.550Z,19.67
2023-03-04T09:08:48.252Z,18.70
2023-03-04T09:11:18.144Z,20.40
2023-03-04T09:13:46.634Z,19.73
2023-03-04T09:16:16.122Z,19.53
2023-03-04T09:18:45.335Z,20.33
2023-03-04T09:21:14.889Z,20.70
2023-03-04T09:23:43.519Z,16.93
2023-03-04T09:26:22.454Z,19.43
2023-03-04T09:28:53.273Z,19.27
2023-03-04T09:31:22.457Z,18.83
2023-03-04T09:33:51.607Z,19.37
2023-03-04T09:36:20.501Z,19.53
2023-03-04T09:38:49.126Z,19.97
2023-03-04T09:41:20.244Z,23.30
2023-03-04T09:43:52.059Z,22.07
2023-03-04T09:46:29.868Z,18.30
2023-03-04T09:48:59.650Z,19.27
2023-03-04T09:51:43.302Z,16.63
2023-03-04T09:54:17.582Z,22.10
2023-03-04T09:56:46.033Z,17.40
2023-03-04T09:59:27.223Z,21.80
2023-03-04T10:01:58.063Z,20.33
2023-03-04T10:04:36.313Z,17.87
2023-03-04T10:07:06.491Z,19.63
2023-03-04T10:09:46.278Z,18.80
2023-03-04T10:12:18.690Z,17.20
2023-03-04T10:14:53.881Z,19.77
2023-03-04T10:17:26.194Z,18.07
2023-03-04T10:19:58.906Z,15.60
2023-03-04T10:22:36.111Z,16.43
2023-03-04T10:25:18.104Z,20.43
2023-03-04T10:27:52.703Z,18.10
2023-03-04T10:30:37.909Z,18.77
2023-03-04T10:33:13.209Z,17.13
2023-03-04T10:35:45.144Z,19.93
2023-03-04T10:38:15.041Z,18.83
2023-03-04T10:40:45.879Z,15.80
2023-03-04T10:43:19.355Z,18.50
2023-03-04T10:45:50.875Z,16.80
2023-03-04T10:48:24.426Z,14.23
2023-03-04T10:50:52.918Z,15.17
2023-03-04T10:53:29.761Z,15.20
2023-03-04T10:55:58.277Z,15.57
2023-03-04T10:58:26.707Z,15.67
2023-03-04T11:01:04.974Z,15.50
2023-03-04T11:03:36.624Z,18.83
2023-03-04T11:06:13.186Z,13.53
2023-03-04T11:08:42.448Z,14.63
2023-03-04T11:11:31.337Z,14.70
2023-03-04T11:14:03.330Z,14.27
2023-03-04T11:16:35.007Z,14.27
2023-03-04T11:19:07.741Z,14.87
2023-03-04T11:21:40.914Z,15.07
2023-03-04T11:24:27.514Z,14.07
2023-03-04T11:27:00.614Z,14.73
2023-03-04T11:29:35.493Z,15.33
2023-03-04T11:32:12.506Z,14.93
2023-03-04T11:34:46.631Z,14.07
2023-03-04T11:37:22.904Z,13.97
2023-03-04T11:39:55.878Z,16.33
2023-03-04T11:42:33.780Z,11.60
2023-03-04T11:45:02.382Z,15.93
2023-03-04T11:47:50.173Z,14.33
2023-03-04T11:50:29.090Z,13.73
2023-03-04T11:53:14.564Z,16.47
2023-03-04T11:55:47.782Z,13.23
2023-03-04T11:58:48.607Z,12.83
2023-03-04T12:01:23.359Z,12.10
2023-03-04T12:04:13.404Z,12.00
2023-03-04T12:06:52.339Z,12.57
2023-03-04T12:09:34.015Z,14.60
2023-03-04T12:12:20.764Z,13.90
2023-03-04T12:14:57.497Z,14.40
2023-03-04T12:17:45.482Z,16.87
2023-03-04T12:20:39.313Z,12.40
2023-03-04T12:23:20.516Z,12.30
2023-03-04T12:25:56.870Z,13.63
2023-03-04T12:28:53.249Z,14.43
2023-03-04T12:31:34.268Z,14.03
2023-03-04T12:34:30.278Z,15.17
2023-03-04T12:37:12.453Z,13.83
2023-03-04T12:39:46.612Z,15.00
2023-03-04T12:42:24.234Z,15.07
2023-03-04T12:45:07.366Z,12.67
2023-03-04T12:47:46.553Z,10.50
2023-03-04T12:50:33.348Z,11.23
2023-03-04T12:53:14.020Z,12.43
2023-03-04T12:55:45.563Z,12.53
2023-03-04T12:58:18.307Z,12.30
2023-03-04T13:00:56.702Z,13.13
2023-03-04T13:03:35.175Z,11.83
2023-03-04T13:06:14.970Z,12.97
2023-03-04T13:08:56.084Z,14.37
2023-03-04T13:11:55.910Z,14.00
2023-03-04T13:14:31.005Z,12.33
2023-03-04T13:17:02.014Z,10.40
2023-03-04T13:19:52.696Z,13.83
2023-03-04T13:22:47.265Z,12.07
2023-03-04T13:25:38.739Z,15.13
2023-03-04T13:28:32.183Z,12.27
2023-03-04T13:31:15.425Z,11.63
2023-03-04T13:33:56.648Z,12.23
2023-03-04T13:36:57.483Z,13.00
2023-03-04T13:39:29.781Z,11.63
2023-03-04T13:41:59.851Z,13.23
2023-03-04T13:44:53.973Z,11.80
2023-03-04T13:47:28.632Z,10.87
2023-03-04T13:50:25.580Z,13.87
2023-03-04T13:52:55.571Z,11.27
2023-03-04T13:55:36.275Z,13.13
2023-03-04T13:58:18.774Z,12.27
2023-03-04T14:00:51.310Z,12.47
2023-03-04T14:03:28.572Z,9.73
2023-03-04T14:06:20.546Z,12.67
2023-03-04T14:08:50.421Z,12.70
2023-03-04T14:11:31.646Z,11.73
2023-03-04T14:14:05.574Z,13.73
2023-03-04T14:16:39.573Z,11.60
2023-03-04T14:19:16.123Z,11.97
2023-03-04T14:21:47.361Z,16.47
2023-03-04T14:24:17.758Z,10.37
2023-03-04T14:26:46.304Z,15.60
2023-03-04T14:29:27.716Z,12.97
2023-03-04T14:31:56.924Z,10.37
2023-03-04T14:34:33.397Z,21.73
2023-03-04T14:37:03.403Z,14.50
2023-03-04T14:39:36.001Z,13.60
2023-03-04T14:42:10.441Z,11.77
2023-03-04T14:44:48.507Z,12.00
2023-03-04T14:47:21.321Z,10.43
2023-03-04T14:49:50.349Z,8.93
2023-03-04T14:52:39.642Z,10.73
2023-03-04T14:55:22.375Z,11.57
2023-03-04T14:57:58.541Z,14.00
2023-03-04T15:00:31.916Z,11.90
2023-03-04T15:03:02.756Z,13.40
2023-03-04T15:05:33.203Z,14.13
2023-03-04T15:08:04.096Z,10.40
2023-03-04T15:10:35.168Z,17.17
2023-03-04T15:13:05.469Z,12.50
2023-03-04T15:15:42.661Z,11.87
2023-03-04T15:18:26.376Z,13.43
2023-03-04T15:20:59.914Z,11.60
2023-03-04T15:23:29.596Z,12.63
2023-03-04T15:26:00.039Z,11.20
2023-03-04T15:28:31.668Z,10.60
2023-03-04T15:31:01.514Z,11.93
2023-03-04T15:33:30.046Z,12.47
2023-03-04T15:36:00.463Z,13.17
2023-03-04T15:38:29.800Z,10.93
2023-03-04T15:40:59.767Z,11.53
2023-03-04T15:43:28.371Z,11.53
2023-03-04T15:45:56.893Z,13.50
2023-03-04T15:48:26.724Z,11.40
2023-03-04T15:50:58.282Z,9.20
2023-03-04T15:53:32.821Z,10.90
2023-03-04T15:56:02.261Z,12.23
2023-03-04T15:58:33.818Z,14.67
2023-03-04T16:01:03.618Z,14.63
2023-03-04T16:03:33.932Z,13.87
2023-03-04T16:06:02.486Z,12.80
2023-03-04T16:08:30.834Z,13.23
2023-03-04T16:10:59.412Z,14.57
2023-03-04T16:13:27.813Z,12.97
2023-03-04T16:15:56.362Z,13.87
2023-03-04T16:18:25.078Z,13.67
2023-03-04T16:20:54.954Z,12.00
2023-03-04T16:23:26.058Z,14.00
2023-03-04T16:25:57.929Z,14.43
2023-03-04T16:28:26.423Z,15.53
2023-03-04T16:30:54.862Z,11.27
2023-03-04T16:33:23.218Z,14.00
2023-03-04T16:35:52.515Z,12.10
2023-03-04T16:38:27.154Z,13.70
2023-03-04T16:40:57.117Z,10.40
2023-03-04T16:43:25.965Z,13.37
2023-03-04T16:45:54.445Z,13.60
2023-03-04T16:48:22.796Z,11.30
2023-03-04T16:50:51.516Z,14.37
2023-03-04T16:53:29.314Z,16.83
2023-03-04T16:56:00.028Z,14.10
2023-03-04T16:58:28.741Z,11.87
2023-03-04T17:00:57.220Z,14.33
2023-03-04T17:03:25.722Z,14.30
2023-03-04T17:05:54.046Z,13.67
2023-03-04T17:08:22.397Z,11.13
2023-03-04T17:10:52.618Z,11.10
2023-03-04T17:13:21.019Z,10.63
2023-03-04T17:15:49.564Z,12.20
2023-03-04T17:18:18.040Z,13.17
2023-03-04T17:20:46.546Z,12.73
2023-03-04T17:23:14.949Z,12.57
2023-03-04T17:25:43.324Z,10.50
2023-03-04T17:28:13.228Z,12.43
2023-03-04T17:30:41.589Z,11.73
2023-03-04T17:33:10.039Z,12.07
2023-03-04T17:35:40.974Z,12.23
2023-03-04T17:38:09.574Z,13.37
2023-03-04T17:40:38.049Z,16.33
2023-03-04T17:43:11.561Z,9.83
2023-03-04T17:45:42.008Z,9.77
2023-03-04T17:48:15.079Z,13.00
2023-03-04T17:50:50.163Z,9.43
2023-03-04T17:53:18.895Z,14.93
2023-03-04T17:55:51.060Z,13.53
2023-03-04T17:58:19.985Z,16.63
2023-03-04T18:00:50.960Z,13.77
2023-03-04T18:03:20.581Z,12.77
2023-03-04T18:05:48.854Z,15.20
2023-03-04T18:08:17.218Z,13.87
2023-03-04T18:10:45.590Z,12.37
2023-03-04T18:13:13.986Z,12.40
2023-03-04T18:15:42.398Z,12.77
2023-03-04T18:18:12.235Z,11.10
2023-03-04T18:20:40.737Z,9.53
2023-03-04T18:23:09.226Z,15.33
2023-03-04T18:25:37.756Z,15.00
2023-03-04T18:28:06.483Z,13.27
2023-03-04T18:30:34.914Z,16.50
2023-03-04T18:33:04.202Z,14.70
2023-03-04T18:35:34.121Z,14.40
2023-03-04T18:38:02.571Z,15.67
2023-03-04T18:40:31.888Z,10.77
2023-03-04T18:43:00.273Z,9.47
2023-03-04T18:45:28.991Z,13.47
2023-03-04T18:47:58.315Z,12.23
2023-03-04T18:50:26.888Z,10.73
2023-03-04T18:52:56.728Z,19.47
2023-03-04T18:55:25.508Z,10.97
2023-03-04T18:57:58.174Z,9.97
2023-03-04T19:00:26.957Z,8.53
2023-03-04T19:03:00.047Z,10.43
2023-03-04T19:05:32.921Z,9.60
2023-03-04T19:08:02.785Z,10.57
2023-03-04T19:10:31.279Z,8.23
2023-03-04T19:12:59.810Z,8.17
2023-03-04T19:15:28.322Z,10.23
2023-03-04T19:17:56.738Z,8.63
2023-03-04T19:20:25.239Z,7.93
2023-03-04T19:22:53.671Z,9.37
2023-03-04T19:25:23.581Z,9.90
2023-03-04T19:27:55.506Z,9.90
2023-03-04T19:30:24.051Z,8.70
2023-03-04T19:32:52.462Z,12.17
2023-03-04T19:35:20.836Z,10.40
2023-03-04T19:37:49.385Z,8.33
2023-03-04T19:40:17.957Z,8.53
2023-03-04T19:42:47.727Z,12.63
2023-03-04T19:45:16.319Z,7.93
2023-03-04T19:47:44.686Z,10.70
2023-03-04T19:50:14.255Z,9.63
2023-03-04T19:52:43.399Z,11.80
2023-03-04T19:55:13.931Z,9.33
2023-03-04T19:57:43.452Z,12.33
2023-03-04T20:00:15.476Z,9.93
2023-03-04T20:02:45.702Z,9.87
2023-03-04T20:05:14.111Z,12.43
2023-03-04T20:07:43.995Z,11.43
2023-03-04T20:10:14.485Z,15.43
2023-03-04T20:12:43.043Z,12.13
2023-03-04T20:15:13.580Z,10.80
2023-03-04T20:17:42.113Z,11.17
2023-03-04T20:20:12.603Z,12.53
2023-03-04T20:22:41.109Z,11.17
2023-03-04T20:25:10.094Z,12.57
2023-03-04T20:27:38.555Z,9.30
2023-03-04T20:30:07.868Z,9.47
2023-03-04T20:32:37.724Z,9.20
2023-03-04T20:35:06.887Z,13.57
2023-03-04T20:37:36.236Z,11.20
2023-03-04T20:40:04.863Z,12.70
2023-03-04T20:42:34.058Z,8.57
2023-03-04T20:45:02.444Z,8.83
2023-03-04T20:47:31.365Z,9.27
2023-03-04T20:50:01.128Z,11.80
2023-03-04T20:52:29.485Z,9.63
2023-03-04T20:54:57.975Z,11.90
2023-03-04T20:57:26.392Z,6.77
2023-03-04T20:59:54.999Z,10.67
2023-03-04T21:02:23.625Z,16.47
2023-03-04T21:04:52.249Z,10.07
2023-03-04T21:07:22.026Z,12.50
2023-03-04T21:09:50.425Z,8.90
2023-03-04T21:12:18.910Z,13.73
2023-03-04T21:14:47.874Z,9.33
2023-03-04T21:17:16.732Z,9.70
2023-03-04T21:19:46.820Z,11.30
2023-03-04T21:22:17.201Z,10.27
2023-03-04T21:24:48.060Z,14.80
2023-03-04T21:27:16.979Z,10.83
2023-03-04T21:29:46.494Z,10.50
2023-03-04T21:32:24.143Z,14.50
2023-03-04T21:34:54.026Z,13.07
2023-03-04T21:37:23.864Z,12.43
2023-03-04T21:39:54.415Z,11.33
2023-03-04T21:42:22.975Z,9.93
2023-03-04T21:44:52.057Z,9.80
2023-03-04T21:47:21.172Z,8.90
2023-03-04T21:49:50.043Z,11.10
2023-03-04T21:52:19.252Z,10.47
2023-03-04T21:54:48.351Z,10.00
2023-03-04T21:57:18.596Z,10.17
2023-03-04T21:59:47.516Z,10.77
2023-03-04T22:02:17.560Z,12.97
2023-03-04T22:04:46.500Z,9.97
2023-03-04T22:07:15.479Z,8.57
2023-03-04T22:09:43.940Z,9.37
2023-03-04T22:12:12.905Z,11.07
2023-03-04T22:14:42.754Z,12.77
2023-03-04T22:17:11.195Z,10.03
2023-03-04T22:19:39.570Z,9.83
2023-03-04T22:22:08.029Z,9.30
2023-03-04T22:24:36.375Z,10.63
2023-03-04T22:27:04.897Z,11.27
2023-03-04T22:29:33.310Z,10.13
2023-03-04T22:32:03.228Z,14.50
2023-03-04T22:34:31.768Z,12.65
2023-03-04T22:37:00.211Z,13.30
2023-03-04T22:39:28.784Z,16.13
2023-03-04T22:41:57.245Z,15.30
2023-03-04T22:44:25.700Z,12.20
2023-03-04T22:46:54.123Z,12.83
2023-03-04T22:49:23.912Z,16.10
2023-03-04T22:51:52.272Z,14.50
2023-03-04T22:54:21.063Z,14.13
2023-03-04T22:56:49.534Z,12.40
2023-03-04T22:59:17.986Z,15.20
2023-03-04T23:01:46.361Z,17.10
2023-03-04T23:04:14.837Z,13.60
2023-03-04T23:06:44.716Z,12.47
2023-03-04T23:09:13.187Z,14.83
2023-03-04T23:11:41.613Z,13.50
2023-03-04T23:14:11.987Z,16.67
2023-03-04T23:16:43.407Z,13.80
2023-03-04T23:19:13.841Z,13.83
2023-03-04T23:21:42.799Z,13.07
2023-03-04T23:24:14.068Z,11.03
2023-03-04T23:26:43.584Z,15.17
2023-03-04T23:29:15.851Z,12.53
2023-03-04T23:31:44.799Z,11.70
2023-03-04T23:34:13.321Z,12.03
2023-03-04T23:36:43.270Z,12.10
2023-03-04T23:39:14.350Z,16.80
2023-03-04T23:41:43.988Z,14.87
2023-03-04T23:44:13.197Z,13.40
2023-03-04T23:46:42.161Z,14.53
2023-03-04T23:49:14.173Z,14.63
2023-03-04T23:51:44.458Z,13.83
2023-03-04T23:54:15.061Z,13.90
2023-03-04T23:56:43.537Z,13.47
2023-03-04T23:59:12.364Z,12.20
